createdAt,value
2019-02-20T00:00:00.400Z,90.30
2019-02-20T00:05:02.593Z,90.40
2019-02-20T00:10:04.092Z,90.40
2019-02-20T00:15:06.382Z,90.50
2019-02-20T00:20:09.771Z,90.50
2019-02-20T00:25:11.071Z,90.40
2019-02-20T00:30:12.721Z,90.40
2019-02-20T00:35:14.152Z,90.50
2019-02-20T00:40:18.220Z,90.50
2019-02-20T00:45:24.588Z,90.60
2019-02-20T00:50:28.986Z,90.60
2019-02-20T00:55:30.737Z,90.50
2019-02-20T01:00:34.610Z,90.50
2019-02-20T01:05:37.927Z,90.50
2019-02-20T01:10:39.371Z,90.50
2019-02-20T01:15:40.765Z,90.40
2019-02-20T01:20:43.512Z,90.40
2019-02-20T01:25:45.092Z,90.50
2019-02-20T01:30:46.528Z,90.50
2019-02-20T01:35:47.985Z,90.40
2019-02-20T01:40:49.406Z,90.30
2019-02-20T01:45:50.882Z,90.40
2019-02-20T01:50:52.442Z,90.40
2019-02-20T01:55:53.771Z,90.40
2019-02-20T02:00:55.127Z,90.40
2019-02-20T02:05:56.578Z,90.50
2019-02-20T02:10:57.936Z,90.60
2019-02-20T02:15:59.263Z,90.70
2019-02-20T02:21:01.054Z,90.70
2019-02-20T02:26:10.642Z,90.70
2019-02-20T02:31:06.188Z,90.70
2019-02-20T02:36:07.655Z,90.80
2019-02-20T02:41:09.069Z,90.80
2019-02-20T02:46:10.787Z,90.80
2019-02-20T02:51:12.232Z,90.70
2019-02-20T02:56:13.736Z,90.70
2019-02-20T03:01:16.228Z,90.80
2019-02-20T03:06:17.680Z,90.80
2019-02-20T03:11:19.242Z,90.80
2019-02-20T03:16:20.710Z,90.70
2019-02-20T03:21:22.132Z,90.60
2019-02-20T03:26:23.663Z,90.60
2019-02-20T03:31:25.529Z,90.50
2019-02-20T03:36:27.017Z,90.50
2019-02-20T03:41:28.372Z,90.70
2019-02-20T03:46:29.678Z,90.60
2019-02-20T03:51:31.178Z,90.60
2019-02-20T03:56:32.756Z,90.70
2019-02-20T04:01:34.433Z,90.60
2019-02-20T04:06:36.296Z,90.70
2019-02-20T04:11:37.739Z,90.70
2019-02-20T04:16:39.231Z,90.60
2019-02-20T04:21:40.662Z,90.70
2019-02-20T04:26:42.024Z,90.80
2019-02-20T04:31:43.548Z,90.80
2019-02-20T04:36:46.521Z,90.90
2019-02-20T04:41:47.869Z,90.90
2019-02-20T04:46:49.300Z,91.00
2019-02-20T04:51:50.792Z,90.90
2019-02-20T04:56:52.256Z,90.80
2019-02-20T05:01:53.710Z,90.80
2019-02-20T05:06:55.507Z,90.80
2019-02-20T05:11:56.907Z,90.70
2019-02-20T05:16:58.358Z,90.70
2019-02-20T05:21:59.748Z,90.80
2019-02-20T05:27:01.184Z,90.90
2019-02-20T05:32:02.588Z,91.10
2019-02-20T05:37:03.959Z,91.10
2019-02-20T05:42:07.078Z,91.10
2019-02-20T05:47:08.819Z,91.10
2019-02-20T05:52:10.244Z,91.20
2019-02-20T05:57:11.679Z,91.30
2019-02-20T06:02:13.479Z,91.30
2019-02-20T06:07:15.151Z,91.40
2019-02-20T06:12:17.242Z,91.40
2019-02-20T06:17:18.636Z,91.40
2019-02-20T06:22:20.385Z,91.40
2019-02-20T06:27:21.825Z,91.40
2019-02-20T06:32:24.182Z,91.40
2019-02-20T06:37:25.815Z,91.40
2019-02-20T06:42:27.430Z,91.30
2019-02-20T06:47:30.563Z,91.40
2019-02-20T06:52:31.937Z,91.40
2019-02-20T06:57:33.459Z,91.40
2019-02-20T07:02:35.843Z,91.50
2019-02-20T07:07:43.177Z,91.40
2019-02-20T07:12:57.829Z,91.40
2019-02-20T07:18:08.163Z,91.30
2019-02-20T07:23:26.910Z,91.30
2019-02-20T07:29:02.550Z,91.30
2019-02-20T07:34:05.488Z,91.30
2019-02-20T07:39:07.045Z,91.30
2019-02-20T07:44:08.470Z,91.40
2019-02-20T07:49:10.002Z,91.40
2019-02-20T07:54:11.435Z,91.30
2019-02-20T07:59:12.872Z,91.20
2019-02-20T08:04:14.221Z,91.10
2019-02-20T08:09:15.734Z,91.00
2019-02-20T08:14:17.290Z,91.00
2019-02-20T08:19:18.820Z,90.90
2019-02-20T08:24:20.165Z,90.80
2019-02-20T08:29:21.570Z,90.80
2019-02-20T08:34:22.914Z,90.70
2019-02-20T08:39:26.322Z,90.60
2019-02-20T08:44:27.815Z,90.50
2019-02-20T08:49:30.735Z,90.50
2019-02-20T08:54:32.273Z,90.40
2019-02-20T08:59:33.604Z,90.40
2019-02-20T09:04:35.068Z,90.40
2019-02-20T09:09:36.405Z,90.40
2019-02-20T09:14:37.835Z,90.30
2019-02-20T09:19:39.509Z,90.20
2019-02-20T09:24:41.076Z,90.10
2019-02-20T09:29:42.504Z,90.10
2019-02-20T09:34:43.847Z,89.70
2019-02-20T09:39:45.296Z,89.20
2019-02-20T09:44:46.672Z,89.00
2019-02-20T09:49:48.439Z,88.90
2019-02-20T09:54:49.799Z,88.30
2019-02-20T09:59:51.339Z,87.60
2019-02-20T10:04:52.970Z,87.50
2019-02-20T10:09:54.319Z,87.00
2019-02-20T10:14:55.746Z,86.40
2019-02-20T10:19:57.105Z,86.10
2019-02-20T10:24:59.369Z,85.60
2019-02-20T10:30:05.135Z,85.00
2019-02-20T10:35:08.372Z,84.80
2019-02-20T10:40:11.162Z,84.10
2019-02-20T10:45:12.865Z,83.50
2019-02-20T10:50:14.488Z,83.30
2019-02-20T10:55:16.370Z,82.90
2019-02-20T11:00:24.197Z,82.50
2019-02-20T11:05:25.926Z,82.80
2019-02-20T11:10:27.551Z,81.80
2019-02-20T11:15:47.418Z,81.50
2019-02-20T11:20:48.765Z,80.60
2019-02-20T11:25:50.298Z,80.40
2019-02-20T11:30:51.833Z,79.90
2019-02-20T11:35:53.355Z,79.40
2019-02-20T11:40:54.959Z,78.10
2019-02-20T11:46:00.346Z,76.60
2019-02-20T11:51:02.061Z,75.50
2019-02-20T11:56:03.420Z,74.80
2019-02-20T12:01:05.145Z,74.40
2019-02-20T12:06:06.585Z,73.70
2019-02-20T12:11:08.096Z,73.10
2019-02-20T12:16:09.931Z,72.50
2019-02-20T12:21:11.239Z,72.20
2019-02-20T12:26:12.744Z,71.70
2019-02-20T12:31:14.170Z,71.60
2019-02-20T12:36:15.620Z,71.60
2019-02-20T12:41:17.054Z,71.20
2019-02-20T12:46:36.943Z,71.20
2019-02-20T12:51:38.481Z,70.60
2019-02-20T12:56:43.883Z,70.50
2019-02-20T13:01:43.205Z,70.30
2019-02-20T13:06:44.567Z,69.90
2019-02-20T13:11:46.753Z,69.60
2019-02-20T13:16:48.127Z,69.30
2019-02-20T13:21:49.619Z,68.50
2019-02-20T13:26:53.197Z,68.00
2019-02-20T13:31:54.432Z,67.70
2019-02-20T13:36:56.009Z,67.10
2019-02-20T13:41:57.407Z,67.20
2019-02-20T13:46:58.923Z,66.90
2019-02-20T13:52:00.561Z,67.00
2019-02-20T13:57:02.501Z,66.50
2019-02-20T14:02:04.487Z,66.00
2019-02-20T14:07:05.896Z,66.00
2019-02-20T14:12:07.446Z,66.00
2019-02-20T14:17:09.598Z,65.60
2019-02-20T14:22:10.963Z,65.10
2019-02-20T14:27:12.379Z,65.10
2019-02-20T14:32:13.765Z,65.30
2019-02-20T14:37:15.085Z,65.40
2019-02-20T14:42:16.522Z,65.50
2019-02-20T14:47:17.861Z,65.50
2019-02-20T14:52:19.200Z,65.50
2019-02-20T14:57:20.543Z,65.40
2019-02-20T15:02:21.985Z,65.40
2019-02-20T15:07:23.589Z,65.80
2019-02-20T15:12:25.533Z,66.00
2019-02-20T15:17:26.951Z,66.00
2019-02-20T15:22:28.719Z,66.30
2019-02-20T15:27:30.228Z,66.20
2019-02-20T15:32:31.637Z,66.30
2019-02-20T15:37:33.411Z,66.00
2019-02-20T15:42:35.099Z,66.20
2019-02-20T15:47:36.623Z,66.10
2019-02-20T15:52:39.725Z,66.20
2019-02-20T15:57:41.715Z,65.90
2019-02-20T16:02:43.152Z,65.60
2019-02-20T16:07:45.052Z,65.60
2019-02-20T16:12:46.929Z,65.60
2019-02-20T16:17:48.367Z,65.70
2019-02-20T16:22:49.964Z,65.30
2019-02-20T16:27:51.291Z,64.90
2019-02-20T16:32:52.693Z,65.10
2019-02-20T16:37:54.000Z,65.60
2019-02-20T16:42:55.504Z,66.10
2019-02-20T16:47:56.991Z,66.20
2019-02-20T16:52:58.596Z,66.30
2019-02-20T16:58:00.122Z,66.80
2019-02-20T17:03:01.689Z,67.00
2019-02-20T17:08:03.930Z,67.60
2019-02-20T17:13:05.445Z,68.10
2019-02-20T17:18:07.495Z,68.80
2019-02-20T17:23:09.024Z,69.50
2019-02-20T17:28:10.527Z,70.00
2019-02-20T17:33:12.233Z,70.50
2019-02-20T17:38:13.857Z,70.70
2019-02-20T17:43:15.400Z,71.20
2019-02-20T17:48:18.525Z,71.70
2019-02-20T17:53:20.348Z,72.30
2019-02-20T17:58:22.656Z,72.80
2019-02-20T18:03:24.079Z,73.40
2019-02-20T18:08:25.545Z,73.70
2019-02-20T18:13:26.927Z,74.10
2019-02-20T18:18:28.266Z,74.40
2019-02-20T18:23:29.848Z,74.80
2019-02-20T18:28:31.454Z,75.10
2019-02-20T18:33:32.883Z,75.30
2019-02-20T18:38:34.224Z,76.00
2019-02-20T18:43:35.584Z,76.20
2019-02-20T18:48:37.566Z,76.50
2019-02-20T18:53:39.111Z,76.40
2019-02-20T18:58:42.097Z,76.60
2019-02-20T19:03:43.651Z,76.60
2019-02-20T19:08:49.202Z,76.80
2019-02-20T19:14:34.829Z,77.00
2019-02-20T19:20:02.452Z,77.00
2019-02-20T19:25:44.337Z,77.10
2019-02-20T19:31:22.495Z,77.30
2019-02-20T19:36:54.073Z,77.30
2019-02-20T19:42:43.063Z,77.30
2019-02-20T19:48:02.797Z,77.70
2019-02-20T19:53:12.870Z,77.90
2019-02-20T19:58:31.940Z,78.20
2019-02-20T20:03:48.017Z,78.40
2019-02-20T20:09:04.216Z,78.50
2019-02-20T20:14:14.272Z,78.60
2019-02-20T20:19:33.005Z,79.00
2019-02-20T20:24:45.952Z,79.30
2019-02-20T20:30:17.325Z,79.70
2019-02-20T20:35:52.813Z,79.70
2019-02-20T20:41:02.707Z,80.00
2019-02-20T20:46:25.389Z,80.50
2019-02-20T20:52:01.613Z,80.40
2019-02-20T20:57:17.540Z,80.70
2019-02-20T21:02:30.331Z,80.80
2019-02-20T21:07:51.821Z,81.00
2019-02-20T21:13:23.470Z,81.20
2019-02-20T21:19:21.228Z,82.10
2019-02-20T21:24:38.847Z,81.70
2019-02-20T21:29:51.617Z,81.80
2019-02-20T21:35:23.649Z,82.30
2019-02-20T21:40:42.454Z,82.80
2019-02-20T21:46:15.341Z,83.00
2019-02-20T21:51:44.780Z,83.60
2019-02-20T21:56:57.407Z,83.80
2019-02-20T22:02:25.812Z,84.00
2019-02-20T22:08:01.298Z,84.40
2019-02-20T22:13:29.643Z,84.70
2019-02-20T22:18:51.371Z,85.10
2019-02-20T22:24:07.385Z,85.60
2019-02-20T22:29:32.203Z,85.90
2019-02-20T22:35:05.252Z,86.10
2019-02-20T22:40:47.122Z,86.10
2019-02-20T22:46:00.214Z,86.50
2019-02-20T22:51:22.065Z,86.70
2019-02-20T22:57:02.671Z,86.90
2019-02-20T23:02:54.085Z,87.00
2019-02-20T23:08:10.038Z,87.10
2019-02-20T23:13:29.114Z,87.30
2019-02-20T23:18:30.863Z,87.90
2019-02-20T23:23:32.595Z,88.00
2019-02-20T23:28:33.991Z,88.50
2019-02-20T23:33:35.430Z,88.50
2019-02-20T23:38:36.871Z,88.90
2019-02-20T23:43:39.373Z,88.90
2019-02-20T23:48:41.128Z,89.30
2019-02-20T23:53:42.773Z,89.40
2019-02-20T23:58:45.817Z,89.40
